首页
METAR-TAF:

METAR-TAF

机场 :

热那亚-克里斯托弗·哥伦布机场

热那亚, 意大利

纬度: 44-25N, 经度: 008-51E, 海拔: 2米

当前天气观测

该预报发布于42分钟前的17:20 UTC
风速7节,风向东北,在北转东北之间变化
温度 10°C
湿度 82%
气压 1014 hPa
能見度: 6000
散云层高于1800英尺
阴天层高于2800英尺

METAR: LIMJ 191720Z 05007KT 020V080 6000 RA SCT018 OVC028 10/07 Q1014

时间: 19:02 (18:02 UTC)

预报

该预报发布于1小时和2分钟前的17:00 UTC
预报有效从19日的 18点(UTC)到 20日的 18点(UTC)
风速10节,风向北转东北
能見度: 7000
多云层高于2500英尺
多云层高于5000英尺
几率 40% :
短暂存在
从 19日的 18点(UTC)到 19日的 24点(UTC)
能見度: 4000
阵雨
成为
从 20日的 00点(UTC)到 20日的 03点(UTC)
几率 40% :
短暂存在
从 20日的 15点(UTC)到 20日的 18点(UTC)
能見度: 4000
阵雨

TAF: LIMJ 191700Z 1918/2018 03010KT 7000 RA BKN025 BKN050 PROB40 TEMPO 1918/1924 4000 SHRA BECMG 2000/2003 NSW PROB40 TEMPO 2015/2018 4000 SHRA

超过4000个机场的气象观测和天气预报(METAR&TAF报告)。

可查询的气象台以黄色和红色小点在地图上表示。

将鼠标移到小点上方,可查看气象台名称。

然后点击查看天气观测和预报。

如需切换地图:点击带黑十字的绿色按钮放大地图;点击带横线的绿色按钮缩小地图;或者点击绿色箭头查看邻近地区的地图。


METAR-TAF: